createdAt,value
2017-10-11T00:02:12.940Z,14.55
2017-10-11T00:04:43.008Z,12.75
2017-10-11T00:07:10.600Z,13.80
2017-10-11T00:09:38.187Z,14.00
2017-10-11T00:12:06.544Z,13.33
2017-10-11T00:14:34.908Z,14.75
2017-10-11T00:17:03.245Z,12.10
2017-10-11T00:19:30.841Z,13.57
2017-10-11T00:22:02.536Z,13.18
2017-10-11T00:24:30.897Z,13.17
2017-10-11T00:26:58.556Z,11.32
2017-10-11T00:29:26.624Z,11.27
2017-10-11T00:31:54.197Z,11.27
2017-10-11T00:34:22.532Z,12.47
2017-10-11T00:36:50.237Z,11.30
2017-10-11T00:39:17.809Z,12.20
2017-10-11T00:41:46.276Z,10.57
2017-10-11T00:44:13.839Z,9.50
2017-10-11T00:46:42.820Z,11.85
2017-10-11T00:49:10.388Z,10.37
2017-10-11T00:51:39.898Z,10.87
2017-10-11T00:54:07.467Z,10.77
2017-10-11T00:56:35.806Z,10.73
2017-10-11T00:59:03.500Z,10.97
2017-10-11T01:01:31.068Z,10.17
2017-10-11T01:03:59.432Z,11.20
2017-10-11T01:06:27.014Z,10.43
2017-10-11T01:08:55.383Z,10.47
2017-10-11T01:11:23.019Z,12.17
2017-10-11T01:13:50.787Z,11.37
2017-10-11T01:16:18.630Z,10.57
2017-10-11T01:18:46.395Z,10.18
2017-10-11T01:21:14.196Z,10.13
2017-10-11T01:23:43.307Z,10.43
2017-10-11T01:26:10.933Z,10.00
2017-10-11T01:28:38.523Z,10.40
2017-10-11T01:31:06.880Z,8.47
2017-10-11T01:33:34.449Z,9.60
2017-10-11T01:36:02.056Z,8.07
2017-10-11T01:38:29.689Z,8.80
2017-10-11T01:40:57.276Z,8.13
2017-10-11T01:43:24.844Z,8.30
2017-10-11T01:45:52.436Z,7.80
2017-10-11T01:48:20.000Z,8.13
2017-10-11T01:50:47.596Z,8.75
2017-10-11T01:53:15.165Z,8.87
2017-10-11T01:55:44.080Z,8.65
2017-10-11T01:58:11.655Z,9.73
2017-10-11T02:00:39.244Z,7.57
2017-10-11T02:03:06.809Z,7.90
2017-10-11T02:05:34.399Z,7.10
2017-10-11T02:08:02.733Z,7.87
2017-10-11T02:10:30.344Z,8.03
2017-10-11T02:12:58.672Z,7.80
2017-10-11T02:15:26.257Z,7.97
2017-10-11T02:17:53.868Z,8.15
2017-10-11T02:20:21.428Z,7.13
2017-10-11T02:22:49.016Z,7.65
2017-10-11T02:25:16.585Z,8.40
2017-10-11T02:27:44.380Z,7.50
2017-10-11T02:30:12.714Z,8.67
2017-10-11T02:32:42.733Z,8.18
2017-10-11T02:35:10.697Z,8.60
2017-10-11T02:37:38.261Z,8.73
2017-10-11T02:40:05.868Z,8.80
2017-10-11T02:42:33.515Z,8.83
2017-10-11T02:45:01.100Z,8.10
2017-10-11T02:47:29.436Z,8.40
2017-10-11T02:49:57.124Z,8.73
2017-10-11T02:52:25.461Z,8.50
2017-10-11T02:54:56.727Z,6.97
2017-10-11T02:57:24.824Z,7.70
2017-10-11T02:59:52.412Z,7.63
2017-10-11T03:02:19.992Z,7.13
2017-10-11T03:04:47.564Z,7.47
2017-10-11T03:07:15.169Z,8.40
2017-10-11T03:09:44.772Z,7.63
2017-10-11T03:12:12.333Z,7.83
2017-10-11T03:14:39.905Z,7.90
2017-10-11T03:17:08.268Z,7.80
2017-10-11T03:19:35.840Z,7.47
2017-10-11T03:22:04.288Z,7.90
2017-10-11T03:24:31.900Z,6.87
2017-10-11T03:27:00.247Z,7.57
2017-10-11T03:29:27.915Z,7.67
2017-10-11T03:31:55.529Z,8.05
2017-10-11T03:34:23.981Z,8.30
2017-10-11T03:36:51.717Z,7.80
2017-10-11T03:39:19.275Z,7.80
2017-10-11T03:41:46.949Z,7.83
2017-10-11T03:44:14.581Z,8.30
2017-10-11T03:46:43.073Z,8.53
2017-10-11T03:49:10.661Z,7.67
2017-10-11T03:51:38.227Z,7.47
2017-10-11T03:54:07.332Z,8.63
2017-10-11T03:56:35.696Z,7.60
2017-10-11T03:59:03.294Z,7.70
2017-10-11T04:01:30.863Z,7.33
2017-10-11T04:03:58.491Z,7.55
2017-10-11T04:06:26.829Z,8.07
2017-10-11T04:08:54.401Z,7.87
2017-10-11T04:11:23.505Z,6.80
2017-10-11T04:13:51.176Z,6.87
2017-10-11T04:16:18.840Z,7.00
2017-10-11T04:18:47.172Z,6.90
2017-10-11T04:21:14.787Z,6.33
2017-10-11T04:23:44.756Z,7.25
2017-10-11T04:26:12.325Z,7.23
2017-10-11T04:28:39.916Z,6.27
2017-10-11T04:31:07.484Z,7.00
2017-10-11T04:33:35.072Z,7.27
2017-10-11T04:36:02.637Z,5.93
2017-10-11T04:38:30.228Z,7.10
2017-10-11T04:40:57.796Z,7.37
2017-10-11T04:43:25.388Z,8.20
2017-10-11T04:45:53.573Z,7.63
2017-10-11T04:48:22.036Z,7.10
2017-10-11T04:50:49.609Z,8.30
2017-10-11T04:53:17.972Z,7.40
2017-10-11T04:55:45.543Z,7.30
2017-10-11T04:58:13.917Z,6.83
2017-10-11T05:00:42.884Z,7.20
2017-10-11T05:03:10.484Z,7.90
2017-10-11T05:05:38.817Z,7.23
2017-10-11T05:08:06.420Z,7.10
2017-10-11T05:10:34.757Z,7.07
2017-10-11T05:13:02.352Z,7.10
2017-10-11T05:15:30.016Z,7.03
2017-10-11T05:17:57.580Z,7.53
2017-10-11T05:20:25.942Z,6.87
2017-10-11T05:22:53.512Z,6.40
2017-10-11T05:25:21.104Z,6.67
2017-10-11T05:27:49.440Z,6.43
2017-10-11T05:30:17.029Z,7.43
2017-10-11T05:32:45.364Z,7.67
2017-10-11T05:35:12.984Z,7.47
2017-10-11T05:37:41.812Z,6.90
2017-10-11T05:40:09.389Z,6.67
2017-10-11T05:42:36.980Z,7.53
2017-10-11T05:45:05.320Z,7.37
2017-10-11T05:47:32.910Z,6.97
2017-10-11T05:50:01.253Z,6.78
2017-10-11T05:52:28.842Z,7.00
2017-10-11T05:54:56.418Z,6.23
2017-10-11T05:57:24.752Z,5.80
2017-10-11T05:59:52.345Z,7.40
2017-10-11T06:02:20.004Z,7.32
2017-10-11T06:04:47.603Z,7.07
2017-10-11T06:07:15.176Z,6.70
2017-10-11T06:09:44.260Z,6.40
2017-10-11T06:12:11.827Z,6.40
2017-10-11T06:14:39.416Z,5.67
2017-10-11T06:17:06.985Z,6.50
2017-10-11T06:19:34.548Z,6.50
2017-10-11T06:22:02.143Z,7.57
2017-10-11T06:24:30.604Z,7.10
2017-10-11T06:26:58.198Z,6.33
2017-10-11T06:29:26.554Z,7.67
2017-10-11T06:31:54.901Z,7.10
2017-10-11T06:34:22.492Z,6.50
2017-10-11T06:36:50.077Z,7.12
2017-10-11T06:39:18.465Z,7.20
2017-10-11T06:41:46.028Z,7.32
2017-10-11T06:44:13.592Z,7.07
2017-10-11T06:46:43.681Z,6.70
2017-10-11T06:49:12.016Z,7.20
2017-10-11T06:51:39.605Z,7.27
2017-10-11T06:54:07.268Z,6.65
2017-10-11T06:56:34.863Z,7.00
2017-10-11T06:59:03.200Z,6.40
2017-10-11T07:01:30.789Z,5.32
2017-10-11T07:03:59.151Z,5.87
2017-10-11T07:06:26.740Z,6.80
2017-10-11T07:08:54.312Z,5.57
2017-10-11T07:11:21.905Z,6.30
2017-10-11T07:13:49.473Z,6.10
2017-10-11T07:16:17.272Z,5.40
2017-10-11T07:18:45.631Z,6.60
2017-10-11T07:21:13.199Z,6.53
2017-10-11T07:23:42.089Z,7.35
2017-10-11T07:26:09.651Z,5.70
2017-10-11T07:28:37.240Z,5.93
2017-10-11T07:31:05.600Z,5.57
2017-10-11T07:33:33.959Z,4.40
2017-10-11T07:36:01.522Z,4.20
2017-10-11T07:38:29.196Z,4.20
2017-10-11T07:40:56.761Z,4.40
2017-10-11T07:43:24.418Z,4.33
2017-10-11T07:45:52.005Z,4.03
2017-10-11T07:48:20.341Z,4.80
2017-10-11T07:50:47.924Z,4.27
2017-10-11T07:53:15.490Z,4.47
2017-10-11T07:55:45.808Z,3.78
2017-10-11T07:58:13.376Z,4.73
2017-10-11T08:00:43.072Z,4.20
2017-10-11T08:03:10.656Z,3.87
2017-10-11T08:05:39.017Z,3.73
2017-10-11T08:08:07.356Z,3.80
2017-10-11T08:10:35.264Z,4.63
2017-10-11T08:13:02.942Z,5.03
2017-10-11T08:15:30.516Z,5.60
2017-10-11T08:17:58.104Z,7.80
2017-10-11T08:20:25.675Z,8.37
2017-10-11T08:22:53.272Z,8.05
2017-10-11T08:25:20.832Z,9.23
2017-10-11T08:27:48.440Z,8.10
2017-10-11T08:30:16.000Z,5.20
2017-10-11T08:32:43.824Z,7.63
2017-10-11T08:35:15.227Z,7.17
2017-10-11T08:37:43.715Z,5.30
2017-10-11T08:40:11.300Z,5.90
2017-10-11T08:42:39.683Z,5.75
2017-10-11T08:45:07.281Z,6.50
2017-10-11T08:47:35.612Z,5.30
2017-10-11T08:50:03.221Z,6.83
2017-10-11T08:52:30.784Z,8.17
2017-10-11T08:54:58.353Z,6.10
2017-10-11T08:57:25.968Z,7.10
2017-10-11T08:59:53.540Z,11.07
2017-10-11T09:02:21.132Z,11.73
2017-10-11T09:04:48.700Z,20.80
2017-10-11T09:07:16.321Z,7.93
2017-10-11T09:09:44.803Z,11.97
2017-10-11T09:12:12.565Z,7.07
2017-10-11T09:14:40.140Z,9.07
2017-10-11T09:17:08.488Z,8.43
2017-10-11T09:19:36.081Z,6.17
2017-10-11T09:22:04.421Z,6.60
2017-10-11T09:24:32.008Z,8.97
2017-10-11T09:26:59.583Z,8.43
2017-10-11T09:29:27.948Z,12.70
2017-10-11T09:31:55.520Z,9.23
2017-10-11T09:34:24.168Z,7.93
2017-10-11T09:36:51.737Z,5.82
2017-10-11T09:39:19.324Z,5.40
2017-10-11T09:41:47.651Z,8.00
2017-10-11T09:44:15.231Z,5.30
2017-10-11T09:46:43.949Z,5.30
2017-10-11T09:49:12.330Z,4.10
2017-10-11T09:51:41.596Z,3.10
2017-10-11T09:54:09.184Z,2.73
2017-10-11T09:56:36.743Z,3.70
2017-10-11T09:59:04.357Z,4.10
2017-10-11T10:01:31.916Z,5.20
2017-10-11T10:03:59.477Z,4.30
2017-10-11T10:06:27.284Z,3.45
2017-10-11T10:08:54.848Z,3.87
2017-10-11T10:11:22.412Z,3.70
2017-10-11T10:13:50.780Z,3.15
2017-10-11T10:16:18.344Z,4.30
2017-10-11T10:18:46.296Z,3.67
2017-10-11T10:21:13.876Z,3.37
2017-10-11T10:23:42.884Z,3.12
2017-10-11T10:26:11.235Z,3.90
2017-10-11T10:28:38.831Z,3.40
2017-10-11T10:31:07.164Z,4.63
2017-10-11T10:33:34.783Z,5.77
2017-10-11T10:36:03.133Z,4.73
2017-10-11T10:38:30.721Z,3.57
2017-10-11T10:40:59.061Z,4.00
2017-10-11T10:43:26.733Z,3.80
2017-10-11T10:45:54.299Z,4.20
2017-10-11T10:48:22.630Z,4.37
2017-10-11T10:50:50.235Z,3.90
2017-10-11T10:53:17.797Z,4.77
2017-10-11T10:55:45.392Z,6.40
2017-10-11T10:58:12.961Z,8.07
2017-10-11T11:00:42.829Z,11.23
2017-10-11T11:03:11.169Z,18.23
2017-10-11T11:05:38.772Z,22.70
2017-10-11T11:08:06.349Z,14.43
2017-10-11T11:10:35.016Z,16.50
2017-10-11T11:13:03.399Z,10.30
2017-10-11T11:15:30.977Z,14.55
2017-10-11T11:17:59.357Z,9.73
2017-10-11T11:20:27.716Z,22.70
2017-10-11T11:22:55.279Z,6.30
2017-10-11T11:25:22.876Z,5.80
2017-10-11T11:27:50.505Z,5.20
2017-10-11T11:30:18.088Z,5.53
2017-10-11T11:32:46.604Z,4.60
2017-10-11T11:35:14.562Z,6.50
2017-10-11T11:37:43.696Z,10.47
2017-10-11T11:40:11.289Z,9.30
2017-10-11T11:42:39.649Z,5.70
2017-10-11T11:45:07.248Z,10.20
2017-10-11T11:47:34.820Z,3.87
2017-10-11T11:50:02.404Z,5.57
2017-10-11T11:52:29.991Z,5.47
2017-10-11T11:54:57.761Z,5.60
2017-10-11T11:57:25.345Z,8.60
2017-10-11T11:59:52.929Z,5.87
2017-10-11T12:02:20.521Z,7.20
2017-10-11T12:04:48.083Z,9.33
2017-10-11T12:07:15.681Z,13.27
2017-10-11T12:09:44.641Z,11.10
2017-10-11T12:14:46.286Z,6.25
2017-10-11T12:17:13.868Z,5.00
2017-10-11T12:19:43.101Z,4.72
2017-10-11T12:22:11.456Z,5.80
2017-10-11T12:24:39.024Z,6.00
2017-10-11T12:27:06.649Z,5.97
2017-10-11T12:29:34.212Z,4.53
2017-10-11T12:32:01.777Z,5.10
2017-10-11T12:34:29.360Z,5.50
2017-10-11T12:36:56.937Z,4.60
2017-10-11T12:39:24.592Z,5.03
2017-10-11T12:41:53.672Z,5.80
2017-10-11T12:44:21.265Z,6.33
2017-10-11T12:46:49.600Z,6.90
2017-10-11T12:49:17.192Z,7.10
2017-10-11T12:51:44.760Z,7.47
2017-10-11T12:54:12.375Z,6.43
2017-10-11T12:56:39.950Z,8.37
2017-10-11T12:59:07.545Z,11.83
2017-10-11T13:01:35.116Z,9.73
2017-10-11T13:04:03.518Z,8.97
2017-10-11T13:06:31.140Z,12.10
2017-10-11T13:08:58.801Z,8.63
2017-10-11T13:11:26.367Z,9.80
2017-10-11T13:13:53.946Z,10.30
2017-10-11T13:16:21.583Z,11.60
2017-10-11T13:18:49.157Z,8.45
2017-10-11T13:21:17.516Z,8.40
2017-10-11T13:23:45.191Z,8.67
2017-10-11T13:26:12.896Z,8.70
2017-10-11T13:28:42.404Z,9.95
2017-10-11T13:31:09.964Z,6.50
2017-10-11T13:33:37.576Z,6.70
2017-10-11T13:36:05.164Z,7.20
2017-10-11T13:38:33.520Z,6.03
2017-10-11T13:41:01.181Z,7.13
2017-10-11T13:43:28.776Z,5.10
2017-10-11T13:45:56.405Z,5.40
2017-10-11T13:48:23.987Z,5.80
2017-10-11T13:50:52.346Z,5.78
2017-10-11T13:53:19.964Z,6.17
2017-10-11T13:55:47.764Z,5.62
2017-10-11T13:58:15.329Z,4.97
2017-10-11T14:00:43.843Z,6.87
2017-10-11T14:03:12.172Z,6.00
2017-10-11T14:05:39.757Z,5.63
2017-10-11T14:08:07.320Z,6.40
2017-10-11T14:10:34.922Z,5.50
2017-10-11T14:13:02.496Z,6.10
2017-10-11T14:15:30.087Z,6.30
2017-10-11T14:17:57.719Z,6.07
2017-10-11T14:20:25.348Z,6.20
2017-10-11T14:22:53.684Z,8.20
2017-10-11T14:25:21.322Z,9.10
2017-10-11T14:27:48.985Z,7.40
2017-10-11T14:30:16.596Z,6.10
2017-10-11T14:32:44.164Z,6.27
2017-10-11T14:35:12.496Z,5.27
2017-10-11T14:37:41.008Z,7.17
2017-10-11T14:40:08.600Z,5.63
2017-10-11T14:42:36.168Z,5.10
2017-10-11T14:45:03.796Z,6.30
2017-10-11T14:47:31.363Z,6.20
2017-10-11T14:49:59.692Z,6.00
2017-10-11T14:52:27.292Z,6.53
2017-10-11T14:54:54.863Z,5.05
2017-10-11T14:57:23.236Z,4.13
2017-10-11T14:59:51.594Z,4.40
2017-10-11T15:02:19.161Z,4.67
2017-10-11T15:04:46.752Z,5.93
2017-10-11T15:07:15.084Z,5.23
2017-10-11T15:09:44.057Z,4.50
2017-10-11T15:12:11.660Z,5.07
2017-10-11T15:14:39.249Z,4.80
2017-10-11T15:17:07.580Z,4.20
2017-10-11T15:19:35.175Z,3.87
2017-10-11T15:22:02.740Z,4.77
2017-10-11T15:24:31.068Z,5.43
2017-10-11T15:26:58.664Z,5.13
2017-10-11T15:29:26.228Z,5.18
2017-10-11T15:31:53.949Z,5.00
2017-10-11T15:34:21.525Z,5.23
2017-10-11T15:36:49.243Z,4.96
2017-10-11T15:39:17.567Z,4.57
2017-10-11T15:41:45.133Z,4.47
2017-10-11T15:44:12.724Z,4.30
2017-10-11T15:46:41.209Z,4.40
2017-10-11T15:49:09.568Z,4.60
2017-10-11T15:51:37.892Z,5.20
2017-10-11T15:54:05.480Z,4.70
2017-10-11T15:56:33.076Z,4.13
2017-10-11T15:59:00.669Z,3.83
2017-10-11T16:01:28.241Z,4.33
2017-10-11T16:03:55.837Z,4.55
2017-10-11T16:06:23.400Z,4.30
2017-10-11T16:08:51.289Z,5.30
2017-10-11T16:11:18.849Z,4.40
2017-10-11T16:13:46.420Z,4.50
2017-10-11T16:16:14.781Z,5.00
2017-10-11T16:18:43.884Z,5.07
2017-10-11T16:21:11.472Z,4.63
2017-10-11T16:23:39.800Z,4.70
2017-10-11T16:26:07.385Z,4.50
2017-10-11T16:28:34.953Z,4.77
2017-10-11T16:31:02.706Z,4.73
2017-10-11T16:33:30.272Z,4.30
2017-10-11T16:35:57.848Z,4.87
2017-10-11T16:38:26.545Z,4.20
2017-10-11T16:40:54.877Z,4.27
2017-10-11T16:43:22.465Z,4.27
2017-10-11T16:45:50.821Z,5.10
2017-10-11T16:48:18.807Z,4.60
2017-10-11T16:50:46.375Z,4.07
2017-10-11T16:53:13.935Z,4.03
2017-10-11T16:55:42.956Z,4.00
2017-10-11T16:58:10.524Z,4.33
2017-10-11T17:00:38.108Z,4.40
2017-10-11T17:03:05.683Z,4.10
2017-10-11T17:05:33.275Z,4.90
2017-10-11T17:08:01.703Z,3.77
2017-10-11T17:10:29.288Z,4.07
2017-10-11T17:12:56.852Z,4.60
2017-10-11T17:15:24.435Z,4.27
2017-10-11T17:17:51.999Z,4.40
2017-10-11T17:20:20.352Z,4.20
2017-10-11T17:22:47.916Z,4.97
2017-10-11T17:25:15.692Z,4.27
2017-10-11T17:27:44.949Z,4.30
2017-10-11T17:30:12.558Z,4.23
2017-10-11T17:32:40.274Z,3.87
2017-10-11T17:35:07.839Z,4.50
2017-10-11T17:37:35.405Z,3.57
2017-10-11T17:40:02.992Z,4.13
2017-10-11T17:42:30.996Z,4.10
2017-10-11T17:44:59.348Z,3.50
2017-10-11T17:47:26.907Z,3.40
2017-10-11T17:49:54.500Z,4.40
2017-10-11T17:52:22.844Z,4.40
2017-10-11T17:54:51.940Z,3.42
2017-10-11T17:57:19.502Z,2.73
2017-10-11T17:59:47.101Z,3.03
2017-10-11T18:02:14.772Z,3.80
2017-10-11T18:04:43.449Z,4.17
2017-10-11T18:07:11.076Z,3.03
2017-10-11T18:09:38.772Z,3.50
2017-10-11T18:12:07.100Z,3.30
2017-10-11T18:14:34.677Z,3.17
2017-10-11T18:17:02.268Z,2.90
2017-10-11T18:19:30.604Z,3.30
2017-10-11T18:21:58.188Z,3.57
2017-10-11T18:24:25.841Z,3.20
2017-10-11T18:26:54.228Z,3.30
2017-10-11T18:29:21.792Z,2.30
2017-10-11T18:31:49.440Z,3.20
2017-10-11T18:34:17.029Z,3.27
2017-10-11T18:36:45.368Z,2.90
2017-10-11T18:39:12.962Z,2.67
2017-10-11T18:41:42.060Z,3.47
2017-10-11T18:44:10.393Z,3.23
2017-10-11T18:46:37.989Z,3.10
2017-10-11T18:49:05.596Z,2.80
2017-10-11T18:51:33.201Z,3.37
2017-10-11T18:54:01.538Z,3.33
2017-10-11T18:56:29.156Z,3.50
2017-10-11T18:58:57.524Z,2.70
2017-10-11T19:01:25.112Z,3.50
2017-10-11T19:03:53.449Z,3.07
2017-10-11T19:06:21.037Z,3.55
2017-10-11T19:08:49.408Z,3.47
2017-10-11T19:11:17.059Z,3.20
2017-10-11T19:13:44.620Z,3.13
2017-10-11T19:16:12.184Z,3.13
2017-10-11T19:18:39.778Z,3.37
2017-10-11T19:21:08.104Z,3.17
2017-10-11T19:23:35.704Z,3.00
2017-10-11T19:26:04.040Z,4.07
2017-10-11T19:28:31.656Z,3.70
2017-10-11T19:30:59.225Z,3.47
2017-10-11T19:33:26.788Z,4.10
2017-10-11T19:35:54.373Z,2.80
2017-10-11T19:38:21.936Z,2.90
2017-10-11T19:40:49.524Z,2.90
2017-10-11T19:43:17.411Z,4.17
2017-10-11T19:45:45.788Z,3.07
2017-10-11T19:48:14.125Z,2.97
2017-10-11T19:50:43.820Z,3.00
2017-10-11T19:55:37.868Z,3.40
2017-10-11T19:58:06.200Z,2.87
2017-10-11T20:00:46.644Z,3.17
2017-10-11T20:03:14.204Z,3.40
2017-10-11T20:05:43.088Z,2.67
2017-10-11T20:08:10.716Z,2.60
2017-10-11T20:10:38.303Z,3.45
2017-10-11T20:13:06.640Z,3.50
2017-10-11T20:15:34.232Z,3.27
2017-10-11T20:18:02.563Z,2.40
2017-10-11T20:20:30.356Z,2.97
2017-10-11T20:22:57.924Z,2.60
2017-10-11T20:25:25.484Z,2.40
2017-10-11T20:27:53.468Z,2.37
2017-10-11T20:30:21.797Z,2.40
2017-10-11T20:32:49.392Z,2.53
2017-10-11T20:35:16.985Z,2.60
2017-10-11T20:37:44.548Z,2.50
2017-10-11T20:40:12.136Z,2.20
2017-10-11T20:42:39.696Z,3.33
2017-10-11T20:45:07.280Z,2.57
2017-10-11T20:47:34.961Z,2.83
2017-10-11T20:50:03.540Z,2.77
2017-10-11T20:52:31.112Z,2.50
2017-10-11T20:54:59.464Z,3.20
2017-10-11T20:57:27.053Z,2.43
2017-10-11T20:59:55.388Z,2.40
2017-10-11T21:02:22.988Z,2.60
2017-10-11T21:04:50.557Z,2.30
2017-10-11T21:07:18.908Z,2.20
2017-10-11T21:09:46.471Z,2.97
2017-10-11T21:12:14.081Z,2.67
2017-10-11T21:14:42.227Z,2.80
2017-10-11T21:17:10.599Z,2.67
2017-10-11T21:19:38.184Z,2.40
2017-10-11T21:22:06.536Z,2.83
2017-10-11T21:24:34.196Z,2.17
2017-10-11T21:27:01.763Z,2.93
2017-10-11T21:29:30.093Z,2.60
2017-10-11T21:31:57.693Z,3.00
2017-10-11T21:34:25.260Z,2.90
2017-10-11T21:36:53.032Z,2.90
2017-10-11T21:39:20.595Z,3.30
2017-10-11T21:41:48.156Z,3.12
2017-10-11T21:44:16.515Z,2.93
2017-10-11T21:46:44.088Z,3.22
2017-10-11T21:49:11.744Z,3.03
2017-10-11T21:51:39.308Z,2.57
2017-10-11T21:54:08.409Z,3.50
2017-10-11T21:56:35.972Z,3.23
2017-10-11T21:59:03.559Z,2.43
2017-10-11T22:01:31.124Z,3.00
2017-10-11T22:03:58.864Z,2.78
2017-10-11T22:06:27.228Z,2.60
2017-10-11T22:08:54.797Z,3.47
2017-10-11T22:11:22.380Z,3.10
2017-10-11T22:13:50.717Z,3.27
2017-10-11T22:16:18.313Z,2.70
2017-10-11T22:18:46.648Z,3.37
2017-10-11T22:21:14.231Z,3.07
2017-10-11T22:23:42.988Z,5.07
2017-10-11T22:26:10.581Z,2.30
2017-10-11T22:28:38.156Z,3.10
2017-10-11T22:31:06.508Z,3.37
2017-10-11T22:33:34.072Z,2.83
2017-10-11T22:36:02.421Z,3.23
2017-10-11T22:38:30.016Z,3.40
2017-10-11T22:40:57.576Z,2.20
2017-10-11T22:43:26.775Z,2.70
2017-10-11T22:45:54.444Z,3.12
2017-10-11T22:48:22.032Z,4.50
2017-10-11T22:50:50.356Z,2.97
2017-10-11T22:53:17.940Z,2.50
2017-10-11T22:55:45.604Z,3.00
2017-10-11T22:58:13.192Z,2.40
2017-10-11T23:00:42.274Z,2.80
2017-10-11T23:03:10.641Z,2.90
2017-10-11T23:05:38.199Z,2.10
2017-10-11T23:08:05.788Z,2.23
2017-10-11T23:10:34.120Z,2.07
2017-10-11T23:13:01.699Z,2.10
2017-10-11T23:15:29.364Z,1.87
2017-10-11T23:17:57.023Z,2.10
2017-10-11T23:20:24.872Z,2.90
2017-10-11T23:22:52.648Z,2.60
2017-10-11T23:25:20.209Z,1.90
2017-10-11T23:27:48.541Z,2.50
2017-10-11T23:30:16.125Z,2.30
2017-10-11T23:32:44.040Z,2.57
2017-10-11T23:35:12.397Z,2.30
2017-10-11T23:37:39.963Z,2.53
2017-10-11T23:40:07.548Z,2.37
2017-10-11T23:42:35.907Z,2.07
2017-10-11T23:45:03.513Z,2.20
2017-10-11T23:47:31.078Z,2.67
2017-10-11T23:49:58.646Z,2.40
2017-10-11T23:52:26.231Z,3.30
2017-10-11T23:54:53.792Z,2.60
2017-10-11T23:57:21.376Z,2.90
2017-10-11T23:59:48.945Z,2.90
